Klaeng Airfield

TH-0010 · Rayong, 泰国

使用的METAR站距离机场68 km。
罗盘
风向 的 风向 190° Klaeng Airfield 11/29
风: 8 kt, 3 beaufort

1 kt

8 kt
改变
0 ft 1.000 2.000 3.000 4.000 5.000
Cloud Cloud
FEW 2.000
METAR VTBU 170000Z 19008KT 9999 FEW020 29/26 Q1010 NOSIG

METAR Klaeng Airfield - TH-0010

Klaeng Airfield是,泰国中的小机场。 该机场位于纬度12,70991和经度101,63054。 该机场有一条跑道: 11/29. 这个机场没有ICAO代码,我们使用TH-0010作为参考。 机场在Bangkok FIR中。

该航空气象观测是针对U-Tapao International Airport在2024年4月17日 07:00, 当地时间进行的。

机场观察

风向为190°,速度为8 kt。

可见度为10 km 或者更多。

有几云在2.000 ft的高度。 没有观察到天花板。

温度和风寒是29 °C。 热指数为36。 露点为26 °C,相对湿度为84%。 海平面上的气压为1010 hPa (QNH)。

白天

今天,太阳从05:59升起,在18:26降落。 这适用于Klaeng Airfield,世界夏令时可能有所不同。 当地时间与世界标准时间之间的时差为+7 小时。 夏令时目前正在进行中。

公司介绍

在这个机场,你可以找到跳伞中心。 本场上唯一已知的公司是Skydive Thailand。

体会

到Vliegles.nl去找飞行课程,跳伞和其他飞行体验。 浏览页面,了解Klaeng Airfield附近所有可用的活动。 你也可以使用搜索功能来寻找你所在地附近的特定飞行课程、跳伞或其他飞行体验。

跑道

Id 标题 侧风 逆风 侧风 %
11/29 110°-290° 8 kt 1 kt 98 %

逆风成分最大的方向会被突出显示,并用于横风计算。 这并不一定意味着这个方向在使用。

乌云

2.000 ft FEW 几云

温度 & 天气

温度 29 °C
露点 26 °C
相对湿度 84%
热度指数 36 °C
Kp-index 2 (0-9)

白天

日出
06:02
中午
12:15
日落
18:28 (11:03)

小工具

你想在你的网站上有一个关于Klaeng Airfield的当前航空天气(METAR)的小部件吗?

显示HTML代码
报告变更